logo
Search for airport 
image banner adimage banner adimage banner ad
image banner ad

MRSA - San Alberto

Located in Siquirres, Costa Rica

ICAO - MRSA, IATA -

Data provided by Airmate  

General information

Coordinates: N10°8'53" W83°29'26"
Elevation is 102 feet MSL.
 
View others Airports in Limon

Operational data

Special qualification required
Current time UTC:
Current local time:
Weather at : MRLM - Limon Intl ( 55 km )
METAR: MRLM 202200Z 06008KT 9999 SCT020 SCT120 29/25 A2984
TAF: TAF COR MRLM 201725Z 2018/2118 05006KT 9999 FEW020 TX31/2021Z TN23/2111Z BECMG 2100/2102 24005KT BECMG 2115/2118 05006KT
View NOTAMs / SUP AIP / TFR affecting this airport [VIEW]
Communications frequencies: [VIEW]

Runways:

RWY identifierQFULength (ft)Width (ft)SurfaceLDA (ft)
0900UNK
2700UNK
10296630UNK
28296630UNK

Airport contact information

Address: Siquirres Costa Rica

Satellite view of MRSA